Harbison, South Carolina
Current Conditions -  °F | °C
As of 5:56 PM on Saturday 25 Oct 2014 (Local Time) from KCAE Reporting Station
Clear Clear  
Wind Chill: 74°   Ceiling: Unl
Heat Index: 74°   Visibility: 10mi
Dew Point: 40°   Wind: 3mph
Humidity: 29%   Direction: 330°NNW
Pressure: 29.95"   Gusts: NA
Location:  34.0744°N, 81.1928°W
Report Text: KCAE 252156Z 33003KT 10SM CLR 23/04 A2995 RMK AO2 SLP141 T02330044
Loading
Personal Weather Stations






























Interactive Weather Map
Tropical Storm Tracking
New forecast layout! Learn more

10-Day Weather Forecast

Advertisements
Track Severe Weather on mobile